Time;durP1;ratioP1;P1;durP2;ratioP2;P2;SDS_P1;SDS_P2;PMS_P1;PMS_P2;Temp;Humidity;BMP_temperature;BMP_pressure;BME280_temperature;BME280_humidity;BME280_pressure;Samples;Min_cycle;Max_cycle;Signal;HPM_P1;HPM_P2
2022/04/18 00:02:04;;;;;;;;;;;;;;;18.70;41.57;102071.84;4958297;28;19997;-83
2022/04/18 00:04:29;;;;;;;;;;;;;;;18.69;41.72;102077.03;4958476;28;20361;-79
2022/04/18 00:06:55;;;;;;;;;;;;;;;18.71;41.57;102076.16;4958360;28;19992;-79
2022/04/18 00:09:20;;;;;;;;;;;;;;;18.66;41.93;102069.16;4942282;28;19972;-79
2022/04/18 00:11:45;;;;;;;;;;;;;;;18.68;42.02;102072.66;4942061;28;19922;-79
2022/04/18 00:14:11;;;;;;;;;;;;;;;18.67;41.89;102063.97;4957841;28;19922;-84
2022/04/18 00:16:36;;;;;;;;;;;;;;;18.69;41.83;102069.22;4942063;28;20388;-79
2022/04/18 00:19:01;;;;;;;;;;;;;;;18.67;41.90;102066.59;4958013;28;19914;-82
2022/04/18 00:21:27;;;;;;;;;;;;;;;18.69;42.14;102061.38;4942138;28;19918;-80
2022/04/18 00:23:52;;;;;;;;;;;;;;;18.66;41.83;102062.25;4942062;28;20343;-81
2022/04/18 00:26:18;;;;;;;;;;;;;;;18.64;41.85;102063.97;4941945;28;19918;-82
2022/04/18 00:28:43;;;;;;;;;;;;;;;18.67;42.24;102056.16;4958037;28;19922;-82
2022/04/18 00:31:08;;;;;;;;;;;;;;;18.64;41.97;102057.84;4957792;28;20281;-84
2022/04/18 00:33:34;;;;;;;;;;;;;;;18.63;42.02;102054.38;4941984;28;20020;-83
2022/04/18 00:36:00;;;;;;;;;;;;;;;18.65;41.78;102051.81;4957854;28;19918;-82
2022/04/18 00:38:25;;;;;;;;;;;;;;;18.62;41.78;102051.78;4941897;28;19918;-83
2022/04/18 00:40:50;;;;;;;;;;;;;;;18.61;41.86;102050.91;4957803;28;19911;-82
2022/04/18 00:43:15;;;;;;;;;;;;;;;18.58;42.04;102048.28;4957678;28;20281;-83
2022/04/18 00:45:41;;;;;;;;;;;;;;;18.57;41.91;102049.13;4941791;28;19918;-83
2022/04/18 00:48:07;;;;;;;;;;;;;;;18.57;41.86;102050.88;4957613;28;19914;-82
2022/04/18 00:50:33;;;;;;;;;;;;;;;18.57;41.91;102051.75;4957848;28;19924;-81
2022/04/18 00:52:59;;;;;;;;;;;;;;;18.58;41.83;102055.25;4957952;28;19921;-83
2022/04/18 00:55:26;;;;;;;;;;;;;;;18.56;42.08;102057.84;4957552;28;19918;-82
2022/04/18 00:57:52;;;;;;;;;;;;;;;18.58;41.96;102050.03;4941724;28;20373;-80
2022/04/18 01:00:18;;;;;;;;;;;;;;;18.58;41.76;102045.69;4975086;28;19937;-82
2022/04/18 01:02:43;;;;;;;;;;;;;;;18.55;41.90;102050.00;4974908;28;20361;-82
2022/04/18 01:05:08;;;;;;;;;;;;;;;18.53;41.81;102042.19;4957601;28;20065;-83
2022/04/18 01:07:34;;;;;;;;;;;;;;;18.57;42.38;102043.91;4957469;28;19921;-82
2022/04/18 01:10:00;;;;;;;;;;;;;;;18.59;42.03;102046.53;4957553;28;20262;-81
2022/04/18 01:12:25;;;;;;;;;;;;;;;18.57;41.91;102045.66;4941528;28;19922;-81
2022/04/18 01:14:51;;;;;;;;;;;;;;;18.56;41.94;102034.38;4957296;28;19926;-81
2022/04/18 01:17:16;;;;;;;;;;;;;;;18.55;41.77;102039.56;4943035;28;19928;-82
2022/04/18 01:19:42;;;;;;;;;;;;;;;18.55;41.98;102036.97;4960996;28;19914;-82
2022/04/18 01:22:09;;;;;;;;;;;;;;;18.55;41.94;102031.75;4978427;28;20324;-82
2022/04/18 01:30:03;;;;;;;;;;;;;;;18.54;41.86;102038.69;4963964;28;19934;-83
2022/04/18 01:32:28;;;;;;;;;;;;;;;18.56;41.69;102025.69;4945223;28;19921;-81
2022/04/18 01:34:53;;;;;;;;;;;;;;;18.52;41.85;102031.75;4945065;28;19925;-83
2022/04/18 01:37:18;;;;;;;;;;;;;;;18.53;41.73;102025.66;4944680;28;20373;-83
2022/04/18 01:39:44;;;;;;;;;;;;;;;18.50;41.78;102026.50;4944725;28;20016;-81
2022/04/18 01:42:09;;;;;;;;;;;;;;;18.53;41.99;102028.25;4944889;28;19925;-84
2022/04/18 01:44:34;;;;;;;;;;;;;;;18.52;41.59;102029.13;4944649;28;19925;-83
2022/04/18 01:46:59;;;;;;;;;;;;;;;18.49;41.68;102033.47;4960721;28;19918;-83
2022/04/18 01:49:25;;;;;;;;;;;;;;;18.47;41.59;102022.16;4960772;28;19914;-83
2022/04/18 01:51:50;;;;;;;;;;;;;;;18.47;41.47;102021.28;4944861;28;19965;-82
2022/04/18 01:54:15;;;;;;;;;;;;;;;18.46;41.78;102023.00;4944740;28;19937;-83
2022/04/18 01:56:41;;;;;;;;;;;;;;;18.46;41.78;102023.00;4977945;28;20016;-82
2022/04/18 01:59:07;;;;;;;;;;;;;;;18.43;41.63;102012.56;4944661;28;20284;-82
2022/04/18 02:01:33;;;;;;;;;;;;;;;18.46;41.93;102011.72;4960366;28;19914;-83
2022/04/18 02:03:58;;;;;;;;;;;;;;;18.43;41.83;102011.72;4960500;28;20361;-83
2022/04/18 02:06:23;;;;;;;;;;;;;;;18.42;41.70;102009.94;4960387;28;19933;-83
2022/04/18 02:08:48;;;;;;;;;;;;;;;18.42;41.95;102012.56;4944564;28;20009;-83
2022/04/18 02:11:14;;;;;;;;;;;;;;;18.43;41.75;102004.75;4944283;28;20447;-83
2022/04/18 02:13:39;;;;;;;;;;;;;;;18.44;41.89;102005.63;4959941;28;20270;-82
2022/04/18 02:16:05;;;;;;;;;;;;;;;18.43;42.02;102001.28;4959977;28;20308;-82
2022/04/18 02:18:30;;;;;;;;;;;;;;;18.43;42.23;101999.53;4960145;28;19937;-82
2022/04/18 02:20:55;;;;;;;;;;;;;;;18.42;42.09;101994.31;4960009;28;19960;-82
2022/04/18 02:23:20;;;;;;;;;;;;;;;18.41;41.86;101998.66;4944112;28;19958;-80
2022/04/18 02:25:46;;;;;;;;;;;;;;;18.41;41.91;101996.06;4960166;28;20000;-83
2022/04/18 02:28:11;;;;;;;;;;;;;;;18.40;41.81;101994.31;4943198;28;19918;-82
2022/04/18 02:30:36;;;;;;;;;;;;;;;18.37;42.01;101991.69;4960336;28;19942;-82
2022/04/18 02:33:02;;;;;;;;;;;;;;;18.38;41.70;101990.84;4944253;28;19918;-82
2022/04/18 02:35:27;;;;;;;;;;;;;;;18.39;41.80;101989.09;4959637;28;20328;-82
2022/04/18 02:37:53;;;;;;;;;;;;;;;18.39;41.93;101989.97;4943807;28;19924;-82
2022/04/18 02:40:18;;;;;;;;;;;;;;;18.39;41.60;101986.50;4943810;28;20313;-80
2022/04/18 02:42:44;;;;;;;;;;;;;;;18.36;41.79;101981.28;4959683;28;19996;-83
2022/04/18 02:45:14;;;;;;;;;;;;;;;18.35;41.89;101976.91;4959604;28;19926;-82
2022/04/18 02:47:39;;;;;;;;;;;;;;;18.39;41.87;101976.94;4977176;28;19921;-83
2022/04/18 02:50:05;;;;;;;;;;;;;;;18.40;41.63;101978.69;4943670;28;19910;-81
2022/04/18 02:52:31;;;;;;;;;;;;;;;18.38;41.58;101980.41;4976853;28;19921;-82
2022/04/18 02:54:56;;;;;;;;;;;;;;;18.41;41.63;101974.34;4959515;28;19914;-84
2022/04/18 02:57:21;;;;;;;;;;;;;;;18.35;41.64;101975.16;4960200;28;19929;-82
2022/04/18 02:59:46;;;;;;;;;;;;;;;18.34;41.52;101977.78;4960136;28;19914;-81
2022/04/18 03:02:11;;;;;;;;;;;;;;;18.35;41.52;101977.78;4977539;28;19922;-81
2022/04/18 03:04:37;;;;;;;;;;;;;;;18.36;41.95;101968.25;4960336;28;19918;-81
2022/04/18 03:07:02;;;;;;;;;;;;;;;18.36;41.49;101971.72;4944099;28;20381;-80
2022/04/18 03:09:28;;;;;;;;;;;;;;;18.36;41.90;101963.91;4976967;28;19953;-83
2022/04/18 03:11:53;;;;;;;;;;;;;;;18.35;41.28;101967.34;4945099;28;20424;-80
2022/04/18 03:14:19;;;;;;;;;;;;;;;18.36;41.57;101965.63;4961978;28;19929;-83
2022/04/18 03:16:44;;;;;;;;;;;;;;;18.34;41.58;101964.75;4959929;28;19965;-81
2022/04/18 03:19:09;;;;;;;;;;;;;;;18.33;41.60;101956.03;4944234;28;19918;-80
2022/04/18 03:21:34;;;;;;;;;;;;;;;18.35;41.61;101954.31;4977357;28;19918;-80
2022/04/18 03:24:00;;;;;;;;;;;;;;;18.35;41.51;101956.94;4959241;28;20005;-82
2022/04/18 03:26:25;;;;;;;;;;;;;;;18.34;41.75;101962.16;4976781;28;20266;-81
2022/04/18 03:28:50;;;;;;;;;;;;;;;18.32;41.32;101953.47;4959457;28;19973;-82
2022/04/18 03:31:16;;;;;;;;;;;;;;;18.33;41.63;101958.66;4959280;28;19925;-83
2022/04/18 03:33:41;;;;;;;;;;;;;;;18.33;41.61;101956.03;4943018;28;19925;-83
2022/04/18 03:41:34;;;;;;;;;;;;;;;18.35;41.73;101943.03;4962157;28;20381;-80
2022/04/18 03:43:59;;;;;;;;;;;;;;;18.32;41.51;101956.94;4942927;28;19918;-81
2022/04/18 03:46:24;;;;;;;;;;;;;;;18.30;41.54;101950.84;4942687;28;20016;-82
2022/04/18 03:48:50;;;;;;;;;;;;;;;18.34;41.46;101949.13;4975988;28;20253;-81
2022/04/18 03:51:15;;;;;;;;;;;;;;;18.36;41.52;101953.47;4942428;28;19941;-80
2022/04/18 03:53:40;;;;;;;;;;;;;;;18.30;41.46;101946.47;4942417;28;19922;-79
2022/04/18 03:56:05;;;;;;;;;;;;;;;18.29;41.46;101949.97;4958371;28;19926;-81
2022/04/18 03:58:30;;;;;;;;;;;;;;;18.30;41.68;101948.22;4942648;28;19922;-80
2022/04/18 04:00:56;;;;;;;;;;;;;;;18.27;41.50;101948.22;4942320;28;19973;-80
2022/04/18 04:03:21;;;;;;;;;;;;;;;18.26;41.36;101952.53;4958240;28;19918;-81
2022/04/18 04:05:46;;;;;;;;;;;;;;;18.25;41.75;101953.41;4958423;28;19922;-82
2022/04/18 04:08:12;;;;;;;;;;;;;;;18.23;41.65;101949.94;4975565;28;19918;-80
2022/04/18 04:10:37;;;;;;;;;;;;;;;18.25;41.80;101950.81;4942145;28;19925;-78
2022/04/18 04:13:02;;;;;;;;;;;;;;;18.26;41.69;101952.53;4941746;28;20296;-82
2022/04/18 04:15:27;;;;;;;;;;;;;;;18.25;41.67;101950.81;4957975;28;20293;-82
2022/04/18 04:17:53;;;;;;;;;;;;;;;18.23;41.24;101944.72;4958008;28;19918;-78
2022/04/18 04:20:19;;;;;;;;;;;;;;;18.22;41.79;101940.34;4942087;28;19922;-79
2022/04/18 04:22:47;;;;;;;;;;;;;;;18.22;41.72;101939.50;4975743;28;19918;-80
2022/04/18 04:25:12;;;;;;;;;;;;;;;18.27;41.77;101951.69;4958409;28;19918;-79
2022/04/18 04:27:37;;;;;;;;;;;;;;;18.24;41.37;101951.66;4941854;28;20296;-79
2022/04/18 04:30:03;;;;;;;;;;;;;;;18.20;41.61;101944.69;4941897;28;19925;-80
2022/04/18 04:32:28;;;;;;;;;;;;;;;18.23;41.52;101941.25;4942068;28;19928;-80
2022/04/18 04:34:54;;;;;;;;;;;;;;;18.21;41.61;101943.84;4942152;28;19919;-80
2022/04/18 04:37:19;;;;;;;;;;;;;;;18.20;41.73;101954.25;4941856;28;20428;-81
2022/04/18 04:39:44;;;;;;;;;;;;;;;18.23;41.74;101956.88;4941914;28;20340;-81
2022/04/18 04:42:10;;;;;;;;;;;;;;;18.25;41.61;101957.75;4941907;28;19976;-79
2022/04/18 04:44:36;;;;;;;;;;;;;;;18.22;41.71;101953.38;4941891;28;19942;-80
2022/04/18 04:47:01;;;;;;;;;;;;;;;18.20;41.69;101957.72;4957924;28;19914;-80
2022/04/18 04:49:27;;;;;;;;;;;;;;;18.19;41.56;101958.59;4957768;28;19922;-79
2022/04/18 04:51:52;;;;;;;;;;;;;;;18.26;41.54;101964.72;4942807;28;20014;-80
2022/04/18 04:54:17;;;;;;;;;;;;;;;18.25;41.56;101957.75;4961797;28;19918;-81
2022/04/18 04:56:42;;;;;;;;;;;;;;;18.26;41.60;101955.16;4978858;28;20292;-78
2022/04/18 04:59:08;;;;;;;;;;;;;;;18.25;41.30;101950.81;4945643;28;19925;-80
2022/04/18 05:01:33;;;;;;;;;;;;;;;18.27;41.80;101948.22;4945675;28;19925;-80
2022/04/18 05:03:58;;;;;;;;;;;;;;;18.24;41.49;101948.19;4961486;28;20427;-81
2022/04/18 05:06:24;;;;;;;;;;;;;;;18.27;41.35;101943.00;4945731;28;19918;-79
2022/04/18 05:08:49;;;;;;;;;;;;;;;18.25;41.27;101949.94;4961551;28;19922;-81
2022/04/18 05:11:14;;;;;;;;;;;;;;;18.23;41.34;101947.31;4945290;28;19940;-78
2022/04/18 05:13:40;;;;;;;;;;;;;;;18.26;41.75;101946.47;4961206;28;19976;-81
2022/04/18 05:16:05;;;;;;;;;;;;;;;18.25;41.56;101944.75;4945059;28;19944;-79
2022/04/18 05:18:30;;;;;;;;;;;;;;;18.26;41.62;101939.50;4945404;28;19960;-81
2022/04/18 05:20:57;;;;;;;;;;;;;;;18.26;41.31;101936.91;4945194;28;20385;-81
2022/04/18 05:23:22;;;;;;;;;;;;;;;18.27;41.29;101936.06;4945236;28;19914;-77
2022/04/18 05:25:48;;;;;;;;;;;;;;;18.28;41.43;101937.78;4961178;28;20292;-79
2022/04/18 05:28:13;;;;;;;;;;;;;;;18.28;41.42;101939.53;4978548;28;20005;-78
2022/04/18 05:30:39;;;;;;;;;;;;;;;18.29;41.39;101949.06;4978406;28;19918;-79
2022/04/18 05:33:05;;;;;;;;;;;;;;;18.28;41.42;101944.75;4945256;28;19918;-80
2022/04/18 05:35:30;;;;;;;;;;;;;;;18.29;41.35;101947.38;4960766;28;20377;-81
2022/04/18 05:37:56;;;;;;;;;;;;;;;18.35;41.37;101948.25;4945075;28;19918;-80
2022/04/18 05:40:21;;;;;;;;;;;;;;;18.42;41.54;101944.78;4944752;28;20016;-79
2022/04/18 05:42:46;;;;;;;;;;;;;;;18.55;41.61;101950.94;4944709;28;19926;-79
2022/04/18 05:45:12;;;;;;;;;;;;;;;18.75;41.34;101956.22;4944782;28;19918;-79
2022/04/18 05:47:37;;;;;;;;;;;;;;;19.03;40.53;101950.28;4960881;28;20362;-81
2022/04/18 05:50:02;;;;;;;;;;;;;;;19.16;40.72;101950.28;4944612;28;19925;-79
2022/04/18 05:52:28;;;;;;;;;;;;;;;19.25;40.42;101950.28;4944787;28;19918;-81
2022/04/18 05:54:53;;;;;;;;;;;;;;;19.31;40.02;101952.91;4945112;28;19925;-82
2022/04/18 05:57:21;;;;;;;;;;;;;;;19.33;40.08;101945.94;4944327;28;19922;-79
2022/04/18 05:59:46;;;;;;;;;;;;;;;19.37;40.05;101963.34;4961184;28;19969;-78
2022/04/18 06:02:11;;;;;;;;;;;;;;;19.41;39.81;101953.78;4960446;28;19918;-82
2022/04/18 06:04:37;;;;;;;;;;;;;;;19.44;39.72;101957.25;4944354;28;19918;-79
2022/04/18 06:07:02;;;;;;;;;;;;;;;19.47;39.34;101956.41;4944253;28;19957;-79
2022/04/18 06:09:27;;;;;;;;;;;;;;;19.50;38.68;101964.25;4944230;28;20379;-79
2022/04/18 06:11:53;;;;;;;;;;;;;;;19.53;38.40;101966.84;4944189;28;19945;-81
2022/04/18 06:14:18;;;;;;;;;;;;;;;19.53;38.21;101967.72;4944176;28;19927;-79
2022/04/18 06:16:44;;;;;;;;;;;;;;;19.58;38.12;101970.34;4977873;28;19922;-78
2022/04/18 06:19:09;;;;;;;;;;;;;;;19.67;37.69;101969.47;4944375;28;19918;-78
2022/04/18 06:21:34;;;;;;;;;;;;;;;19.71;37.33;101960.78;4960396;28;20292;-78
2022/04/18 06:23:59;;;;;;;;;;;;;;;19.80;36.96;101963.41;4960274;28;19954;-79
2022/04/18 06:26:25;;;;;;;;;;;;;;;19.82;36.98;101959.03;4960337;28;19918;-79
2022/04/18 06:28:51;;;;;;;;;;;;;;;19.82;37.27;101966.88;4960507;28;19930;-81
2022/04/18 06:31:16;;;;;;;;;;;;;;;19.70;38.08;101966.88;4959951;28;19918;-76
2022/04/18 06:33:42;;;;;;;;;;;;;;;19.53;39.41;101972.06;4944267;28;20024;-78
2022/04/18 06:36:07;;;;;;;;;;;;;;;19.49;38.76;101967.72;4960095;28;19922;-79
2022/04/18 06:38:32;;;;;;;;;;;;;;;19.45;38.30;101964.25;4959830;28;19921;-80
2022/04/18 06:40:58;;;;;;;;;;;;;;;19.46;37.73;101965.09;4943958;28;19922;-85
2022/04/18 06:43:23;;;;;;;;;;;;;;;19.47;37.25;101965.13;4944048;28;20401;-81
2022/04/18 06:45:48;;;;;;;;;;;;;;;19.49;36.75;101967.72;4944066;28;20369;-81
2022/04/18 06:48:14;;;;;;;;;;;;;;;19.51;36.67;101968.56;4959889;28;19914;-80
2022/04/18 06:50:39;;;;;;;;;;;;;;;19.49;36.34;101968.59;4945539;28;20020;-80
2022/04/18 06:53:05;;;;;;;;;;;;;;;19.48;36.50;101964.22;4959916;28;20266;-79
2022/04/18 06:56:58;;;;;;;;;;;;;;;19.48;36.54;101969.44;4959528;28;19914;-78
2022/04/18 06:58:15;;;;;;;;;;;;;;;19.49;36.30;101967.72;4977000;28;19918;-79
2022/04/18 07:00:40;;;;;;;;;;;;;;;19.48;36.42;101974.66;4943380;28;19925;-80
2022/04/18 07:03:06;;;;;;;;;;;;;;;19.48;36.14;101968.59;4943577;28;19929;-76
2022/04/18 07:05:31;;;;;;;;;;;;;;;19.49;36.50;101970.34;4959390;28;20397;-77
2022/04/18 07:07:56;;;;;;;;;;;;;;;19.49;36.53;101967.72;4943300;28;19961;-77
2022/04/18 07:10:22;;;;;;;;;;;;;;;19.53;36.54;101972.06;4959433;28;19965;-77
2022/04/18 07:12:47;;;;;;;;;;;;;;;19.51;36.34;101974.69;4959252;28;19925;-77
2022/04/18 07:15:12;;;;;;;;;;;;;;;19.52;36.30;101967.72;4942623;28;20349;-77
2022/04/18 07:17:37;;;;;;;;;;;;;;;19.56;36.98;101966.84;4959285;28;19961;-78
2022/04/18 07:20:03;;;;;;;;;;;;;;;19.57;35.73;101972.94;4943065;28;19918;-77
2022/04/18 07:22:28;;;;;;;;;;;;;;;19.59;35.85;101976.41;4943105;28;20016;-77
2022/04/18 07:24:56;;;;;;;;;;;;;;;19.59;36.17;101982.50;4943006;28;19918;-78
2022/04/18 07:27:21;;;;;;;;;;;;;;;19.57;35.29;101980.78;4959137;28;19914;-78
2022/04/18 07:29:46;;;;;;;;;;;;;;;19.59;35.03;101969.44;4959408;28;19925;-78
2022/04/18 07:32:12;;;;;;;;;;;;;;;19.63;35.04;101971.19;4959107;28;20374;-78
2022/04/18 07:34:37;;;;;;;;;;;;;;;19.60;34.97;101976.44;4942994;28;20017;-78
2022/04/18 07:37:03;;;;;;;;;;;;;;;19.64;35.13;101972.06;4942493;28;19930;-79
2022/04/18 07:39:28;;;;;;;;;;;;;;;19.66;35.55;101962.47;4958784;28;20333;-78
2022/04/18 07:41:53;;;;;;;;;;;;;;;19.65;35.89;101966.84;4942614;28;19976;-77
2022/04/18 07:44:20;;;;;;;;;;;;;;;19.67;35.70;101978.16;4942601;28;19918;-79
2022/04/18 07:46:45;;;;;;;;;;;;;;;19.68;35.88;101968.56;4958932;28;19961;-78
2022/04/18 07:49:10;;;;;;;;;;;;;;;19.64;35.77;101975.56;4942789;28;19950;-78
2022/04/18 07:51:38;;;;;;;;;;;;;;;19.61;35.65;101972.94;4958690;28;19954;-78
2022/04/18 07:54:05;;;;;;;;;;;;;;;19.62;36.60;101963.34;4943100;28;19973;-80
2022/04/18 07:56:30;;;;;;;;;;;;;;;19.61;35.35;101972.94;4958400;28;19918;-81
2022/04/18 07:58:55;;;;;;;;;;;;;;;19.61;36.01;101969.47;4942616;28;19919;-79
2022/04/18 08:01:21;;;;;;;;;;;;;;;19.59;35.42;101969.44;4958318;28;19921;-80
2022/04/18 08:03:47;;;;;;;;;;;;;;;19.63;35.80;101958.13;4958344;28;19922;-81
2022/04/18 08:06:12;;;;;;;;;;;;;;;19.66;35.39;101962.47;4942276;28;19935;-81
2022/04/18 08:08:37;;;;;;;;;;;;;;;19.66;36.41;101963.38;4958090;28;20364;-77
2022/04/18 08:11:03;;;;;;;;;;;;;;;19.67;36.34;101967.72;4958312;28;19914;-78
2022/04/18 08:13:28;;;;;;;;;;;;;;;19.67;36.91;101967.72;4958002;28;19965;-80
2022/04/18 08:15:54;;;;;;;;;;;;;;;19.69;36.62;101966.00;4942515;28;19926;-78
2022/04/18 08:18:19;;;;;;;;;;;;;;;19.68;36.59;101966.81;4942103;28;19922;-80
2022/04/18 08:20:45;;;;;;;;;;;;;;;19.68;36.56;101961.59;4958155;28;19922;-80
2022/04/18 08:23:10;;;;;;;;;;;;;;;19.69;36.93;101980.78;4942170;28;20393;-80
2022/04/18 08:25:35;;;;;;;;;;;;;;;19.70;36.71;101970.34;4941939;28;19922;-79
2022/04/18 08:28:01;;;;;;;;;;;;;;;19.69;36.62;101968.63;4957726;28;19915;-79
2022/04/18 08:30:27;;;;;;;;;;;;;;;19.72;37.23;101967.75;4942324;28;19918;-80
2022/04/18 08:32:52;;;;;;;;;;;;;;;19.69;36.17;101972.94;4958520;28;19941;-78
2022/04/18 08:35:18;;;;;;;;;;;;;;;19.67;36.52;101970.31;4942072;28;20053;-80
2022/04/18 08:37:43;;;;;;;;;;;;;;;19.70;37.27;101969.47;4942974;28;19918;-78
2022/04/18 08:40:10;;;;;;;;;;;;;;;19.72;36.29;101965.13;4958717;28;19968;-77
2022/04/18 08:42:37;;;;;;;;;;;;;;;19.74;36.69;101963.38;4958124;28;19939;-76
2022/04/18 08:45:04;;;;;;;;;;;;;;;19.69;36.48;101967.72;4957988;28;19936;-78
2022/04/18 08:52:57;;;;;;;;;;;;;;;19.57;43.62;101962.50;4983913;28;19921;-78
2022/04/18 08:55:22;;;;;;;;;;;;;;;19.55;44.01;101962.47;4974543;28;19914;-75
2022/04/18 08:57:48;;;;;;;;;;;;;;;19.55;44.60;101956.41;4960284;28;19918;-76
2022/04/18 09:00:13;;;;;;;;;;;;;;;19.52;45.05;101959.88;4961705;28;19922;-76
2022/04/18 09:02:39;;;;;;;;;;;;;;;19.53;44.96;101959.91;4977438;28;19926;-76
2022/04/18 09:05:08;;;;;;;;;;;;;;;19.54;45.81;101965.97;4977415;28;19914;-76
2022/04/18 09:07:33;;;;;;;;;;;;;;;19.55;46.19;101966.84;4977382;28;19914;-75
2022/04/18 09:09:59;;;;;;;;;;;;;;;19.55;46.21;101959.88;4977305;28;19949;-75
2022/04/18 09:12:26;;;;;;;;;;;;;;;19.55;46.49;101959.88;4977171;28;19982;-79
2022/04/18 09:14:52;;;;;;;;;;;;;;;19.51;46.45;101951.19;4975857;28;19937;-76
2022/04/18 09:17:37;;;;;;;;;;;;;;;19.50;46.70;101951.19;4971458;28;19918;-76
2022/04/18 09:20:02;;;;;;;;;;;;;;;19.50;46.84;101957.25;4974491;28;19914;-74
2022/04/18 09:22:28;;;;;;;;;;;;;;;19.51;46.94;101952.91;4957522;28;19914;-75
2022/04/18 09:24:54;;;;;;;;;;;;;;;19.50;47.26;101948.56;4941850;28;19925;-75
2022/04/18 09:27:29;;;;;;;;;;;;;;;19.49;47.38;101960.75;4974979;28;20463;-81
2022/04/18 09:30:12;;;;;;;;;;;;;;;19.53;47.24;101953.78;4957709;28;20349;-76
2022/04/18 09:32:41;;;;;;;;;;;;;;;19.46;47.60;101952.91;4974971;28;19921;-76
2022/04/18 09:35:06;;;;;;;;;;;;;;;19.44;47.56;101949.44;4941710;28;20020;-78
2022/04/18 09:37:32;;;;;;;;;;;;;;;19.42;47.70;101945.94;4957954;28;20001;-76
2022/04/18 09:39:58;;;;;;;;;;;;;;;19.42;47.62;101943.34;4978334;28;19914;-77
2022/04/18 09:42:25;;;;;;;;;;;;;;;19.41;47.73;101941.59;4960990;28;19926;-77
2022/04/18 09:44:50;;;;;;;;;;;;;;;19.40;47.94;101942.50;4960858;28;19914;-78
2022/04/18 09:47:16;;;;;;;;;;;;;;;19.35;48.33;101944.22;4978324;28;19914;-77
2022/04/18 09:49:42;;;;;;;;;;;;;;;19.33;47.80;101944.19;4960883;28;19922;-76
2022/04/18 09:52:11;;;;;;;;;;;;;;;19.33;48.20;101946.81;4978119;28;19922;-77
2022/04/18 09:54:40;;;;;;;;;;;;;;;19.32;48.25;101936.38;4960610;28;19921;-77
2022/04/18 09:57:06;;;;;;;;;;;;;;;19.30;47.95;101935.50;4960593;28;19918;-77
2022/04/18 09:59:31;;;;;;;;;;;;;;;19.30;48.00;101939.00;4978093;28;19918;-78
2022/04/18 10:01:58;;;;;;;;;;;;;;;19.29;48.41;101941.59;4960606;28;20286;-77
2022/04/18 10:04:24;;;;;;;;;;;;;;;19.29;47.98;101933.75;4960635;28;19918;-77
2022/04/18 10:06:52;;;;;;;;;;;;;;;19.30;47.75;101936.38;4977983;28;19976;-77
2022/04/18 10:09:17;;;;;;;;;;;;;;;19.28;48.20;101932.91;4960236;28;19917;-78
2022/04/18 10:11:42;;;;;;;;;;;;;;;19.30;48.01;101930.28;4960409;28;19919;-77
2022/04/18 10:14:08;;;;;;;;;;;;;;;19.29;48.25;101934.66;4960178;28;19926;-77
2022/04/18 10:16:33;;;;;;;;;;;;;;;19.29;47.95;101933.75;4977512;28;19961;-75
2022/04/18 10:19:01;;;;;;;;;;;;;;;19.29;48.03;101938.97;4944333;28;19926;-75
2022/04/18 10:21:30;;;;;;;;;;;;;;;19.29;47.98;101938.97;4977479;28;20005;-76
2022/04/18 10:56:03;;;;;;;;;;;;;;;19.42;46.80;101917.22;4782181;23;20207;-81
2022/04/18 11:04:27;;;;;;;;;;;;;;;19.46;47.01;101915.50;5013843;28;20030;-82
2022/04/18 11:06:59;;;;;;;;;;;;;;;19.55;46.63;101917.25;5010019;28;19985;-81
2022/04/18 15:55:49;;;;;;;;;;;;;;;20.09;38.53;101722.06;5853653;23;19926;-81
2022/04/18 17:22:38;;;;;;;;;;;;;;;19.95;39.40;101706.50;6059456;23;19920;31
2022/04/18 17:52:43;;;;;;;;;;;;;;;19.86;39.78;101704.78;5216022;23;19926;-80
2022/04/18 17:57:57;;;;;;;;;;;;;;;19.81;39.36;101716.97;4971493;28;19930;-80
2022/04/18 18:00:28;;;;;;;;;;;;;;;19.82;39.61;101713.50;4973277;28;20025;-81
2022/04/18 18:11:41;;;;;;;;;;;;;;;19.70;39.41;101711.81;4939125;29;19943;-79
2022/04/18 18:17:43;;;;;;;;;;;;;;;19.69;38.64;101719.66;4943703;29;19929;-83
2022/04/18 18:20:12;;;;;;;;;;;;;;;19.69;39.17;101719.66;4937473;29;19915;-81
2022/04/18 18:22:37;;;;;;;;;;;;;;;19.70;39.46;101724.00;5373636;23;19979;-80
2022/04/18 18:25:06;;;;;;;;;;;;;;;19.67;40.20;101727.47;4970936;29;20401;-81
2022/04/18 18:30:42;;;;;;;;;;;;;;;19.64;38.81;101735.34;4974271;28;19950;-79
2022/04/18 18:33:10;;;;;;;;;;;;;;;19.63;38.91;101723.13;4957840;29;20354;-79
2022/04/18 18:35:39;;;;;;;;;;;;;;;19.67;38.80;101730.09;4958884;29;19925;-78
2022/04/18 18:38:04;;;;;;;;;;;;;;;19.65;38.92;101725.75;4961255;29;19923;-78
2022/04/18 18:40:33;;;;;;;;;;;;;;;19.64;38.96;101731.81;4960358;29;19982;-78
2022/04/18 18:42:58;;;;;;;;;;;;;;;19.63;38.79;101727.50;4960859;29;19922;-78
2022/04/18 18:45:23;;;;;;;;;;;;;;;19.59;38.74;101731.00;4966981;29;19919;-78
2022/04/18 18:47:48;;;;;;;;;;;;;;;19.55;38.20;101724.91;4960563;29;19943;-77
2022/04/18 18:52:52;;;;;;;;;;;;;;;19.53;37.66;101727.53;5829708;23;19935;-82
2022/04/18 18:55:21;;;;;;;;;;;;;;;19.53;37.43;101734.47;4981732;28;19906;-83
2022/04/18 18:57:47;;;;;;;;;;;;;;;19.51;37.12;101737.13;4981443;28;19906;-83
2022/04/18 19:15:44;;;;;;;;;;;;;;;19.46;37.86;101745.81;5195309;23;19977;-84
2022/04/18 20:02:18;;;;;;;;;;;;;;;19.31;35.93;101738.91;5414507;23;19910;-82
2022/04/18 20:46:07;;;;;;;;;;;;;;;19.13;35.92;101720.69;5934564;23;19930;-82
2022/04/18 20:59:48;;;;;;;;;;;;;;;19.08;35.72;101734.59;5186642;23;19941;-83
2022/04/18 21:02:17;;;;;;;;;;;;;;;19.10;35.75;101732.00;5002308;28;19965;-83
2022/04/18 22:42:12;;;;;;;;;;;;;;;18.41;36.52;101713.72;5790291;23;19957;31
2022/04/18 22:55:55;;;;;;;;;;;;;;;18.40;36.96;101705.06;6023707;23;19925;-81
2022/04/18 23:42:32;;;;;;;;;;;;;;;18.35;38.03;101667.69;5005388;28;19941;-86
2022/04/18 23:45:00;;;;;;;;;;;;;;;18.33;38.11;101663.34;5002665;28;19906;-86
2022/04/18 23:47:25;;;;;;;;;;;;;;;18.33;38.22;101665.94;5002739;28;19921;-86
2022/04/18 23:49:51;;;;;;;;;;;;;;;18.33;38.34;101663.34;5003051;28;19906;-84
